createdAt,value
2017-08-19T00:01:22.163Z,18.71
2017-08-19T00:03:50.525Z,18.44
2017-08-19T00:06:19.130Z,18.75
2017-08-19T00:08:47.482Z,18.81
2017-08-19T00:11:15.855Z,18.56
2017-08-19T00:13:44.727Z,18.76
2017-08-19T00:16:13.860Z,18.83
2017-08-19T00:18:42.214Z,18.76
2017-08-19T00:21:10.913Z,18.69
2017-08-19T00:23:39.406Z,18.74
2017-08-19T00:26:07.755Z,18.70
2017-08-19T00:28:37.587Z,18.86
2017-08-19T00:31:05.950Z,18.92
2017-08-19T00:33:34.357Z,18.80
2017-08-19T00:36:03.270Z,19.07
2017-08-19T00:38:31.644Z,19.01
2017-08-19T00:41:00.007Z,19.11
2017-08-19T00:43:28.669Z,19.27
2017-08-19T00:45:57.064Z,18.91
2017-08-19T00:48:25.417Z,18.88
2017-08-19T00:50:54.109Z,18.96
2017-08-19T00:53:22.438Z,18.85
2017-08-19T00:55:50.802Z,18.75
2017-08-19T00:58:19.366Z,18.66
2017-08-19T01:00:47.716Z,18.76
2017-08-19T01:03:16.811Z,18.65
2017-08-19T01:05:46.246Z,18.77
2017-08-19T01:08:14.590Z,18.59
2017-08-19T01:10:42.942Z,18.55
2017-08-19T01:13:11.547Z,18.56
2017-08-19T01:15:40.647Z,18.54
2017-08-19T01:18:08.990Z,18.57
2017-08-19T01:20:37.505Z,18.34
2017-08-19T01:23:05.860Z,18.21
2017-08-19T01:25:52.362Z,18.18
2017-08-19T01:28:20.706Z,18.20
2017-08-19T01:30:49.073Z,18.01
2017-08-19T01:33:18.113Z,17.87
2017-08-19T01:35:46.457Z,17.97
2017-08-19T01:38:14.806Z,17.98
2017-08-19T01:40:44.208Z,17.88
2017-08-19T01:43:12.578Z,17.76
2017-08-19T01:45:41.720Z,18.01
2017-08-19T01:48:10.309Z,18.00
2017-08-19T01:50:38.650Z,17.86
2017-08-19T01:53:07.762Z,17.73
2017-08-19T01:55:36.654Z,17.48
2017-08-19T01:58:05.062Z,17.56
2017-08-19T02:00:33.420Z,17.42
2017-08-19T02:03:02.105Z,17.25
2017-08-19T02:05:30.454Z,17.10
2017-08-19T02:07:58.794Z,17.19
2017-08-19T02:10:27.313Z,17.06
2017-08-19T02:12:55.654Z,17.18
2017-08-19T02:15:24.003Z,17.04
2017-08-19T02:17:52.586Z,17.09
2017-08-19T02:20:20.936Z,17.15
2017-08-19T02:22:49.306Z,17.18
2017-08-19T02:25:18.130Z,16.97
2017-08-19T02:27:46.503Z,17.00
2017-08-19T02:30:14.856Z,16.96
2017-08-19T02:32:43.375Z,16.85
2017-08-19T02:35:11.746Z,16.69
2017-08-19T02:37:40.126Z,16.76
2017-08-19T02:40:09.225Z,16.87
2017-08-19T02:42:37.603Z,16.87
2017-08-19T02:45:05.946Z,16.80
2017-08-19T02:47:34.873Z,16.85
2017-08-19T02:50:03.233Z,16.80
2017-08-19T02:52:32.375Z,16.72
2017-08-19T02:55:00.953Z,16.94
2017-08-19T02:57:29.296Z,17.18
2017-08-19T02:59:58.437Z,16.70
2017-08-19T03:02:27.124Z,16.99
2017-08-19T03:04:55.503Z,16.96
2017-08-19T03:07:23.861Z,16.74
2017-08-19T03:09:52.397Z,16.91
2017-08-19T03:12:20.725Z,16.78
2017-08-19T03:14:49.093Z,16.77
2017-08-19T03:17:17.870Z,16.89
2017-08-19T03:19:46.278Z,16.99
2017-08-19T03:22:14.624Z,17.23
2017-08-19T03:24:43.546Z,17.02
2017-08-19T03:27:11.885Z,16.92
2017-08-19T03:29:40.233Z,16.89
2017-08-19T03:32:09.194Z,16.56
2017-08-19T03:34:37.543Z,16.63
2017-08-19T03:37:05.882Z,16.52
2017-08-19T03:39:34.432Z,16.51
2017-08-19T03:42:02.782Z,16.59
2017-08-19T03:44:31.911Z,16.46
2017-08-19T03:47:00.698Z,16.52
2017-08-19T03:49:29.043Z,16.36
2017-08-19T03:51:57.424Z,16.62
2017-08-19T03:54:25.956Z,16.56
2017-08-19T03:56:54.329Z,16.63
2017-08-19T03:59:22.723Z,16.88
2017-08-19T04:01:51.386Z,16.76
2017-08-19T04:04:19.753Z,16.92
2017-08-19T04:06:48.113Z,16.84
2017-08-19T04:09:17.223Z,16.72
2017-08-19T04:11:45.551Z,16.83
2017-08-19T04:14:13.898Z,16.82
2017-08-19T04:16:42.656Z,16.75
2017-08-19T04:19:10.990Z,16.58
2017-08-19T04:21:39.334Z,16.54
2017-08-19T04:24:08.186Z,16.46
2017-08-19T04:26:36.527Z,16.30
2017-08-19T04:29:04.891Z,16.33
2017-08-19T04:31:33.641Z,16.36
2017-08-19T04:34:02.777Z,16.50
2017-08-19T04:36:31.146Z,16.35
2017-08-19T04:38:59.841Z,16.33
2017-08-19T04:41:28.183Z,16.05
2017-08-19T04:43:57.294Z,16.14
2017-08-19T04:46:26.737Z,16.22
2017-08-19T04:48:55.092Z,16.31
2017-08-19T04:51:23.447Z,16.37
2017-08-19T04:53:52.053Z,16.33
2017-08-19T04:56:20.408Z,16.40
2017-08-19T04:58:48.775Z,16.67
2017-08-19T05:01:17.331Z,16.54
2017-08-19T05:03:45.678Z,16.58
2017-08-19T05:06:14.022Z,16.60
2017-08-19T05:08:42.877Z,16.56
2017-08-19T05:11:11.230Z,16.78
2017-08-19T05:13:39.623Z,16.57
2017-08-19T05:16:08.382Z,16.45
2017-08-19T05:18:36.740Z,16.61
2017-08-19T05:21:05.111Z,16.50
2017-08-19T05:23:33.629Z,16.74
2017-08-19T05:26:01.966Z,16.68
2017-08-19T05:28:30.331Z,16.70
2017-08-19T05:30:59.201Z,16.58
2017-08-19T05:33:27.571Z,16.50
2017-08-19T05:35:55.927Z,16.75
2017-08-19T05:38:24.829Z,16.72
2017-08-19T05:40:53.177Z,16.82
2017-08-19T05:43:22.305Z,16.82
2017-08-19T05:45:50.887Z,16.88
2017-08-19T05:48:19.237Z,17.01
2017-08-19T05:50:48.358Z,16.88
2017-08-19T05:53:16.959Z,16.95
2017-08-19T05:55:45.317Z,16.94
2017-08-19T05:58:13.672Z,17.06
2017-08-19T06:00:42.526Z,17.32
2017-08-19T06:03:10.866Z,17.40
2017-08-19T06:05:39.227Z,17.29
2017-08-19T06:08:08.651Z,17.49
2017-08-19T06:10:37.007Z,17.38
2017-08-19T06:13:06.123Z,17.44
2017-08-19T06:15:34.753Z,17.59
2017-08-19T06:18:03.109Z,17.46
2017-08-19T06:20:31.467Z,17.44
2017-08-19T06:23:00.277Z,17.72
2017-08-19T06:25:28.663Z,17.75
2017-08-19T06:27:57.015Z,17.76
2017-08-19T06:30:25.819Z,18.06
2017-08-19T06:32:54.268Z,18.31
2017-08-19T06:35:22.630Z,18.34
2017-08-19T06:37:51.255Z,18.22
2017-08-19T06:40:19.642Z,18.24
2017-08-19T06:42:48.035Z,18.56
2017-08-19T06:45:16.946Z,18.30
2017-08-19T06:47:45.330Z,18.34
2017-08-19T06:50:13.721Z,18.46
2017-08-19T06:52:42.404Z,18.71
2017-08-19T06:55:10.770Z,19.09
2017-08-19T06:57:39.145Z,19.49
2017-08-19T07:00:07.666Z,19.24
2017-08-19T07:02:36.033Z,19.13
2017-08-19T07:05:04.414Z,19.13
2017-08-19T07:07:33.103Z,19.19
2017-08-19T07:10:01.469Z,19.25
2017-08-19T07:12:29.828Z,19.18
2017-08-19T07:14:58.485Z,18.92
2017-08-19T07:17:26.837Z,19.09
2017-08-19T07:19:55.959Z,19.66
2017-08-19T07:22:24.764Z,19.21
2017-08-19T07:24:53.141Z,19.45
2017-08-19T07:27:21.513Z,19.97
2017-08-19T07:29:50.394Z,20.04
2017-08-19T07:32:18.773Z,19.83
2017-08-19T07:34:47.132Z,19.67
2017-08-19T07:37:15.845Z,20.20
2017-08-19T07:39:44.226Z,20.34
2017-08-19T07:42:12.579Z,20.69
2017-08-19T07:44:41.146Z,20.82
2017-08-19T07:47:09.495Z,20.32
2017-08-19T07:49:37.871Z,20.50
2017-08-19T07:52:06.522Z,20.78
2017-08-19T07:54:34.871Z,20.35
2017-08-19T07:57:03.217Z,20.74
2017-08-19T07:59:32.180Z,20.90
2017-08-19T08:02:00.533Z,21.32
2017-08-19T08:04:29.673Z,21.48
2017-08-19T08:06:58.461Z,21.60
2017-08-19T08:09:26.844Z,21.35
2017-08-19T08:11:55.203Z,21.12
2017-08-19T08:14:24.087Z,21.72
2017-08-19T08:16:52.478Z,21.12
2017-08-19T08:19:20.826Z,20.53
2017-08-19T08:21:49.356Z,20.52
2017-08-19T08:24:17.725Z,21.24
2017-08-19T08:26:46.088Z,21.59
2017-08-19T08:29:14.787Z,21.52
2017-08-19T08:31:43.201Z,22.10
2017-08-19T08:34:11.586Z,22.33
2017-08-19T08:36:40.447Z,22.33
2017-08-19T08:39:08.778Z,22.50
2017-08-19T08:41:37.895Z,21.81
2017-08-19T08:44:07.409Z,21.56
2017-08-19T08:46:35.836Z,21.86
2017-08-19T08:49:04.212Z,21.95
2017-08-19T08:51:32.755Z,22.14
2017-08-19T08:54:01.127Z,21.78
2017-08-19T08:56:29.503Z,21.63
2017-08-19T08:58:58.427Z,21.71
2017-08-19T09:01:26.812Z,21.93
2017-08-19T09:03:55.185Z,22.19
2017-08-19T09:06:23.720Z,22.13
2017-08-19T09:08:52.842Z,21.80
2017-08-19T09:11:21.186Z,21.97
2017-08-19T09:13:50.141Z,22.26
2017-08-19T09:16:18.568Z,22.98
2017-08-19T09:18:46.922Z,22.58
2017-08-19T09:21:15.785Z,23.02
2017-08-19T09:23:44.122Z,22.67
2017-08-19T09:26:13.260Z,22.94
2017-08-19T09:28:41.865Z,23.11
2017-08-19T09:31:10.232Z,23.08
2017-08-19T09:33:38.600Z,23.11
2017-08-19T09:36:07.288Z,22.34
2017-08-19T09:38:35.626Z,22.62
2017-08-19T09:41:03.992Z,23.04
2017-08-19T09:43:32.710Z,22.01
2017-08-19T09:46:01.085Z,21.79
2017-08-19T09:48:29.477Z,22.28
2017-08-19T09:50:58.195Z,23.10
2017-08-19T09:53:26.572Z,23.21
2017-08-19T09:55:54.944Z,23.05
2017-08-19T09:58:23.501Z,23.31
2017-08-19T10:00:51.876Z,22.58
2017-08-19T10:03:20.257Z,21.93
2017-08-19T10:05:49.039Z,22.25
2017-08-19T10:08:34.903Z,23.15
2017-08-19T10:11:21.457Z,23.57
2017-08-19T10:13:49.806Z,23.49
2017-08-19T10:16:18.159Z,22.78
2017-08-19T10:18:46.793Z,23.96
2017-08-19T10:21:15.179Z,24.39
2017-08-19T10:23:43.563Z,23.77
2017-08-19T10:26:12.548Z,23.64
2017-08-19T10:28:40.935Z,22.91
2017-08-19T10:31:09.318Z,22.46
2017-08-19T10:33:37.903Z,22.68
2017-08-19T10:36:06.250Z,22.14
2017-08-19T10:38:34.606Z,22.43
2017-08-19T10:41:03.444Z,22.66
2017-08-19T10:43:31.814Z,22.40
2017-08-19T10:46:00.153Z,22.33
2017-08-19T10:48:29.041Z,22.51
2017-08-19T10:50:57.388Z,22.39
2017-08-19T10:53:25.729Z,22.54
2017-08-19T10:55:54.407Z,22.19
2017-08-19T10:58:22.790Z,22.29
2017-08-19T11:00:51.173Z,22.19
2017-08-19T11:03:19.954Z,22.40
2017-08-19T11:05:48.293Z,22.32
2017-08-19T11:08:16.627Z,22.27
2017-08-19T11:10:45.485Z,23.26
2017-08-19T11:13:13.839Z,23.38
2017-08-19T11:15:42.181Z,23.78
2017-08-19T11:18:10.876Z,23.70
2017-08-19T11:20:39.257Z,23.10
2017-08-19T11:23:07.621Z,22.12
2017-08-19T11:25:36.507Z,21.97
2017-08-19T11:28:04.863Z,22.83
2017-08-19T11:30:33.999Z,23.94
2017-08-19T11:33:02.974Z,23.96
2017-08-19T11:35:31.327Z,23.54
2017-08-19T11:38:00.467Z,23.30
2017-08-19T11:40:29.125Z,23.25
2017-08-19T11:42:57.484Z,23.46
2017-08-19T11:45:25.830Z,23.58
2017-08-19T11:47:54.356Z,24.12
2017-08-19T11:50:22.746Z,24.39
2017-08-19T11:52:51.090Z,24.99
2017-08-19T11:55:19.941Z,25.27
2017-08-19T11:57:48.323Z,25.23
2017-08-19T12:00:16.697Z,24.78
2017-08-19T12:02:45.366Z,24.85
2017-08-19T12:05:13.711Z,24.19
2017-08-19T12:07:42.083Z,24.54
2017-08-19T12:10:10.773Z,25.08
2017-08-19T12:12:39.157Z,25.51
2017-08-19T12:15:07.476Z,25.14
2017-08-19T12:17:36.429Z,25.90
2017-08-19T12:20:04.804Z,26.14
2017-08-19T12:22:33.178Z,26.79
2017-08-19T12:25:01.727Z,25.22
2017-08-19T12:27:30.058Z,24.43
2017-08-19T12:29:58.413Z,23.98
2017-08-19T12:32:26.954Z,24.13
2017-08-19T12:34:55.309Z,24.87
2017-08-19T12:37:23.693Z,25.47
2017-08-19T12:39:52.419Z,25.61
2017-08-19T12:42:20.792Z,25.63
2017-08-19T12:44:49.159Z,26.41
2017-08-19T12:47:17.781Z,26.51
2017-08-19T12:49:46.134Z,25.44
2017-08-19T12:52:14.510Z,25.65
2017-08-19T12:54:43.186Z,25.14
2017-08-19T12:57:11.536Z,24.67
2017-08-19T12:59:39.894Z,25.22
2017-08-19T13:02:09.609Z,24.96
2017-08-19T13:04:38.020Z,24.96
2017-08-19T13:07:06.379Z,25.22
2017-08-19T13:09:34.929Z,24.58
2017-08-19T13:12:03.313Z,25.33
2017-08-19T13:14:31.653Z,25.48
2017-08-19T13:17:00.279Z,25.17
2017-08-19T13:19:28.632Z,25.15
2017-08-19T13:21:56.996Z,25.08
2017-08-19T13:24:25.673Z,25.14
2017-08-19T13:26:54.204Z,25.05
2017-08-19T13:29:22.575Z,25.27
2017-08-19T13:31:51.226Z,24.75
2017-08-19T13:34:19.592Z,24.64
2017-08-19T13:36:47.921Z,24.48
2017-08-19T13:39:16.466Z,24.89
2017-08-19T13:41:44.815Z,25.45
2017-08-19T13:44:13.177Z,25.18
2017-08-19T13:46:42.088Z,25.04
2017-08-19T13:49:10.459Z,24.99
2017-08-19T13:51:38.823Z,24.72
2017-08-19T13:54:07.470Z,25.05
2017-08-19T13:56:35.863Z,25.33
2017-08-19T13:59:04.247Z,25.30
2017-08-19T14:01:32.902Z,24.34
2017-08-19T14:04:01.276Z,24.51
2017-08-19T14:06:29.628Z,24.58
2017-08-19T14:08:58.364Z,24.86
2017-08-19T14:11:26.726Z,24.67
2017-08-19T14:13:55.126Z,24.90
2017-08-19T14:16:23.934Z,25.73
2017-08-19T14:18:52.302Z,25.75
2017-08-19T14:21:20.652Z,25.63
2017-08-19T14:23:49.414Z,25.83
2017-08-19T14:26:17.768Z,25.76
2017-08-19T14:28:46.159Z,25.58
2017-08-19T14:31:15.348Z,24.52
2017-08-19T14:33:43.702Z,24.93
2017-08-19T14:36:12.031Z,25.12
2017-08-19T14:38:40.572Z,24.95
2017-08-19T14:41:08.925Z,24.31
2017-08-19T14:43:37.305Z,23.98
2017-08-19T14:46:06.089Z,23.67
2017-08-19T14:48:34.432Z,23.66
2017-08-19T14:51:02.789Z,23.60
2017-08-19T14:53:31.401Z,23.49
2017-08-19T14:55:59.757Z,23.31
2017-08-19T14:58:28.127Z,23.05
2017-08-19T15:00:56.871Z,23.19
2017-08-19T15:03:25.249Z,23.41
2017-08-19T15:05:53.619Z,22.89
2017-08-19T15:08:22.548Z,22.45
2017-08-19T15:10:50.910Z,22.72
2017-08-19T15:13:19.282Z,22.38
2017-08-19T15:15:48.044Z,22.60
2017-08-19T15:18:17.184Z,22.55
2017-08-19T15:20:45.522Z,22.24
2017-08-19T15:23:14.238Z,22.80
2017-08-19T15:25:42.616Z,23.10
2017-08-19T15:28:10.973Z,23.20
2017-08-19T15:30:39.707Z,22.73
2017-08-19T15:33:08.128Z,22.32
2017-08-19T15:35:36.506Z,22.78
2017-08-19T15:38:06.091Z,22.90
2017-08-19T15:40:34.422Z,23.40
2017-08-19T15:43:02.823Z,23.06
2017-08-19T15:45:31.609Z,23.04
2017-08-19T15:47:59.967Z,22.64
2017-08-19T15:50:28.331Z,23.02
2017-08-19T15:52:57.014Z,23.43
2017-08-19T15:55:25.380Z,23.13
2017-08-19T15:57:54.507Z,22.75
2017-08-19T16:00:23.517Z,22.55
2017-08-19T16:02:51.871Z,22.67
2017-08-19T16:05:20.251Z,23.01
2017-08-19T16:07:48.781Z,23.24
2017-08-19T16:10:17.136Z,22.96
2017-08-19T16:12:45.517Z,22.67
2017-08-19T16:15:14.223Z,22.67
2017-08-19T16:17:42.568Z,22.95
2017-08-19T16:20:10.998Z,23.02
2017-08-19T16:22:40.321Z,22.63
2017-08-19T16:25:08.694Z,22.74
2017-08-19T16:27:37.060Z,22.76
2017-08-19T16:30:05.693Z,22.70
2017-08-19T16:32:34.041Z,22.80
2017-08-19T16:35:02.419Z,22.56
2017-08-19T16:37:31.077Z,23.15
2017-08-19T16:39:59.450Z,23.23
2017-08-19T16:42:27.808Z,23.07
2017-08-19T16:44:56.409Z,23.00
2017-08-19T16:47:24.794Z,22.46
2017-08-19T16:49:53.154Z,22.49
2017-08-19T16:52:22.028Z,22.59
2017-08-19T16:54:50.407Z,22.53
2017-08-19T16:57:18.769Z,22.50
2017-08-19T16:59:47.689Z,22.48
2017-08-19T17:02:16.037Z,22.44
2017-08-19T17:04:45.199Z,22.72
2017-08-19T17:07:14.125Z,22.45
2017-08-19T17:09:42.477Z,22.35
2017-08-19T17:12:10.857Z,22.28
2017-08-19T17:14:39.444Z,22.34
2017-08-19T17:17:07.794Z,22.68
2017-08-19T17:19:36.181Z,22.17
2017-08-19T17:22:05.071Z,22.19
2017-08-19T17:24:33.464Z,21.96
2017-08-19T17:27:01.813Z,21.91
2017-08-19T17:29:30.895Z,21.70
2017-08-19T17:31:59.249Z,21.84
2017-08-19T17:34:28.392Z,22.07
2017-08-19T17:36:57.179Z,21.70
2017-08-19T17:39:25.536Z,21.68
2017-08-19T17:41:53.892Z,21.45
2017-08-19T17:44:22.604Z,21.63
2017-08-19T17:46:50.941Z,21.51
2017-08-19T17:49:19.284Z,21.57
2017-08-19T17:51:48.205Z,21.64
2017-08-19T17:54:16.565Z,21.52
2017-08-19T17:56:44.929Z,21.40
2017-08-19T17:59:13.450Z,21.30
2017-08-19T18:01:41.835Z,21.38
2017-08-19T18:04:10.964Z,21.29
2017-08-19T18:06:39.739Z,21.40
2017-08-19T18:09:08.079Z,21.48
2017-08-19T18:11:36.498Z,21.06
2017-08-19T18:14:05.729Z,20.83
2017-08-19T18:16:34.078Z,20.72
2017-08-19T18:19:02.424Z,20.54
2017-08-19T18:21:30.961Z,20.52
2017-08-19T18:23:59.309Z,20.30
2017-08-19T18:26:27.660Z,20.12
2017-08-19T18:28:56.308Z,20.04
2017-08-19T18:31:24.653Z,19.83
2017-08-19T18:33:53.910Z,19.58
2017-08-19T18:36:22.538Z,19.36
2017-08-19T18:38:50.975Z,19.12
2017-08-19T18:41:19.356Z,19.15
2017-08-19T18:43:47.894Z,19.06
2017-08-19T18:46:16.265Z,18.82
2017-08-19T18:48:44.659Z,18.39
2017-08-19T18:51:13.216Z,18.31
2017-08-19T18:53:41.574Z,18.07
2017-08-19T18:56:09.924Z,17.80
2017-08-19T18:58:38.736Z,17.98
2017-08-19T19:01:07.146Z,18.25
2017-08-19T19:03:35.511Z,17.93
2017-08-19T19:06:04.190Z,18.08
2017-08-19T19:08:32.518Z,17.99
2017-08-19T19:11:00.891Z,18.07
2017-08-19T19:13:29.425Z,18.19
2017-08-19T19:15:57.758Z,18.05
2017-08-19T19:18:26.125Z,17.92
2017-08-19T19:20:55.031Z,17.96
2017-08-19T19:23:23.384Z,17.99
2017-08-19T19:25:51.744Z,17.99
2017-08-19T19:28:20.266Z,17.64
2017-08-19T19:30:48.609Z,17.62
2017-08-19T19:33:16.952Z,17.55
2017-08-19T19:35:45.609Z,17.35
2017-08-19T19:38:13.975Z,17.74
2017-08-19T19:40:42.353Z,17.54
2017-08-19T19:43:10.851Z,17.34
2017-08-19T19:45:39.236Z,17.51
2017-08-19T19:48:07.592Z,17.56
2017-08-19T19:50:36.758Z,17.55
2017-08-19T19:53:05.131Z,17.42
2017-08-19T19:55:33.495Z,17.47
2017-08-19T19:58:01.923Z,17.55
2017-08-19T20:00:30.339Z,17.15
2017-08-19T20:02:58.756Z,16.87
2017-08-19T20:05:27.607Z,17.06
2017-08-19T20:07:55.988Z,17.41
2017-08-19T20:10:24.354Z,17.38
2017-08-19T20:12:52.787Z,17.18
2017-08-19T20:15:21.175Z,17.26
2017-08-19T20:17:49.568Z,17.51
2017-08-19T20:20:17.979Z,17.11
2017-08-19T20:22:46.396Z,17.18
2017-08-19T20:25:14.781Z,17.35
2017-08-19T20:27:43.282Z,17.41
2017-08-19T20:30:11.705Z,17.58
2017-08-19T20:32:40.118Z,17.55
2017-08-19T20:35:08.528Z,17.56
2017-08-19T20:37:37.668Z,17.51
2017-08-19T20:40:06.082Z,17.51
2017-08-19T20:42:34.540Z,17.40
2017-08-19T20:45:02.891Z,17.34
2017-08-19T20:47:31.293Z,17.30
2017-08-19T20:49:59.756Z,17.33
2017-08-19T20:52:28.114Z,17.37
2017-08-19T20:54:57.207Z,17.37
2017-08-19T20:57:26.409Z,17.29
2017-08-19T20:59:54.763Z,17.41
2017-08-19T21:02:23.135Z,17.35
2017-08-19T21:04:51.597Z,17.53
2017-08-19T21:07:19.972Z,17.30
2017-08-19T21:09:48.351Z,17.09
2017-08-19T21:12:16.868Z,17.14
2017-08-19T21:14:45.232Z,17.05
2017-08-19T21:17:13.573Z,17.11
2017-08-19T21:19:42.093Z,17.11
2017-08-19T21:22:10.475Z,17.05
2017-08-19T21:24:38.862Z,16.97
2017-08-19T21:27:07.258Z,17.01
2017-08-19T21:29:35.656Z,17.06
2017-08-19T21:32:04.038Z,16.89
2017-08-19T21:34:32.520Z,17.09
2017-08-19T21:37:00.912Z,17.00
2017-08-19T21:39:29.270Z,16.96
2017-08-19T21:41:58.408Z,16.84
2017-08-19T21:44:26.815Z,16.52
2017-08-19T21:46:55.224Z,16.70
2017-08-19T21:49:23.711Z,16.79
2017-08-19T21:51:52.062Z,16.85
2017-08-19T21:54:20.490Z,16.74
2017-08-19T21:56:48.967Z,16.33
2017-08-19T21:59:17.364Z,16.36
2017-08-19T22:01:45.840Z,16.42
2017-08-19T22:04:14.274Z,16.45
2017-08-19T22:06:42.630Z,16.46
2017-08-19T22:09:11.052Z,16.59
2017-08-19T22:11:39.471Z,16.61
2017-08-19T22:14:07.846Z,16.71
2017-08-19T22:16:36.185Z,16.72
2017-08-19T22:19:04.792Z,16.45
2017-08-19T22:21:33.142Z,16.44
2017-08-19T22:24:01.524Z,16.20
2017-08-19T22:26:30.677Z,16.26
2017-08-19T22:28:59.067Z,16.32
2017-08-19T22:31:27.432Z,16.43
2017-08-19T22:33:55.841Z,16.54
2017-08-19T22:36:24.234Z,16.45
2017-08-19T22:38:52.601Z,16.58
2017-08-19T22:41:21.039Z,16.53
2017-08-19T22:43:49.396Z,16.31
2017-08-19T22:46:17.752Z,16.35
2017-08-19T22:48:46.160Z,16.37
2017-08-19T22:51:14.505Z,16.56
2017-08-19T22:53:42.866Z,16.53
2017-08-19T22:56:11.262Z,16.48
2017-08-19T22:58:39.636Z,16.45
2017-08-19T23:01:07.982Z,16.53
2017-08-19T23:03:36.791Z,16.30
2017-08-19T23:06:05.146Z,16.34
2017-08-19T23:08:33.506Z,16.39
2017-08-19T23:11:01.911Z,16.46
2017-08-19T23:13:30.290Z,16.40
2017-08-19T23:15:58.644Z,16.28
2017-08-19T23:18:27.045Z,16.42
2017-08-19T23:20:55.369Z,16.29
2017-08-19T23:23:24.478Z,16.40
2017-08-19T23:25:52.954Z,16.26
2017-08-19T23:28:22.070Z,16.12
2017-08-19T23:30:50.418Z,15.85
2017-08-19T23:33:18.799Z,15.90
2017-08-19T23:35:47.141Z,15.96
2017-08-19T23:38:15.663Z,15.75
2017-08-19T23:40:44.053Z,15.78
2017-08-19T23:43:12.403Z,15.64
2017-08-19T23:45:40.769Z,15.65
2017-08-19T23:48:09.291Z,15.72
2017-08-19T23:56:47.926Z,15.50
2017-08-19T23:59:16.672Z,15.57
